sensor_id;sensor_type;location;lat;lon;timestamp;temperature;humidity
18741;DHT22;9499;52.472;13.448;2023-02-01T00:02:25;4.70;99.90
18741;DHT22;9499;52.472;13.448;2023-02-01T00:04:51;4.70;99.90
18741;DHT22;9499;52.472;13.448;2023-02-01T00:07:18;4.70;99.90
18741;DHT22;9499;52.472;13.448;2023-02-01T00:09:46;4.70;99.90
18741;DHT22;9499;52.472;13.448;2023-02-01T00:12:12;4.70;99.90
18741;DHT22;9499;52.472;13.448;2023-02-01T00:14:39;4.70;99.90
18741;DHT22;9499;52.472;13.448;2023-02-01T00:17:05;4.70;99.90
18741;DHT22;9499;52.472;13.448;2023-02-01T00:19:33;4.70;99.90
18741;DHT22;9499;52.472;13.448;2023-02-01T00:21:59;4.70;99.90
18741;DHT22;9499;52.472;13.448;2023-02-01T00:24:26;4.70;99.90
18741;DHT22;9499;52.472;13.448;2023-02-01T00:26:54;4.80;99.90
18741;DHT22;9499;52.472;13.448;2023-02-01T00:29:21;4.80;99.90
18741;DHT22;9499;52.472;13.448;2023-02-01T00:31:50;4.90;99.90
18741;DHT22;9499;52.472;13.448;2023-02-01T00:34:16;4.90;99.90
18741;DHT22;9499;52.472;13.448;2023-02-01T00:36:44;4.90;59.30
18741;DHT22;9499;52.472;13.448;2023-02-01T00:39:11;4.90;18.40
18741;DHT22;9499;52.472;13.448;2023-02-01T00:41:38;4.90;18.70
18741;DHT22;9499;52.472;13.448;2023-02-01T00:44:07;4.90;19.10
18741;DHT22;9499;52.472;13.448;2023-02-01T00:46:33;4.90;22.40
18741;DHT22;9499;52.472;13.448;2023-02-01T00:49:00;4.80;22.60
18741;DHT22;9499;52.472;13.448;2023-02-01T00:51:29;4.80;20.00
18741;DHT22;9499;52.472;13.448;2023-02-01T00:53:56;4.80;22.30
18741;DHT22;9499;52.472;13.448;2023-02-01T00:56:22;4.80;35.40
18741;DHT22;9499;52.472;13.448;2023-02-01T00:58:49;4.70;42.50
18741;DHT22;9499;52.472;13.448;2023-02-01T01:01:19;4.70;49.30
18741;DHT22;9499;52.472;13.448;2023-02-01T01:03:47;4.70;54.10
18741;DHT22;9499;52.472;13.448;2023-02-01T01:06:17;4.60;69.10
18741;DHT22;9499;52.472;13.448;2023-02-01T01:08:44;4.60;84.40
18741;DHT22;9499;52.472;13.448;2023-02-01T01:11:12;4.60;71.90
18741;DHT22;9499;52.472;13.448;2023-02-01T01:13:39;4.60;97.50
18741;DHT22;9499;52.472;13.448;2023-02-01T01:16:07;4.50;90.00
18741;DHT22;9499;52.472;13.448;2023-02-01T01:18:36;4.50;95.10
18741;DHT22;9499;52.472;13.448;2023-02-01T01:21:05;4.50;94.00
18741;DHT22;9499;52.472;13.448;2023-02-01T01:23:31;4.50;97.40
18741;DHT22;9499;52.472;13.448;2023-02-01T01:25:58;4.50;95.90
18741;DHT22;9499;52.472;13.448;2023-02-01T01:28:25;4.50;99.30
18741;DHT22;9499;52.472;13.448;2023-02-01T01:30:51;4.40;96.80
18741;DHT22;9499;52.472;13.448;2023-02-01T01:33:17;4.40;86.60
18741;DHT22;9499;52.472;13.448;2023-02-01T01:35:45;4.50;90.40
18741;DHT22;9499;52.472;13.448;2023-02-01T01:38:12;4.50;89.50
18741;DHT22;9499;52.472;13.448;2023-02-01T01:40:38;4.50;92.00
18741;DHT22;9499;52.472;13.448;2023-02-01T01:43:12;4.50;72.10
18741;DHT22;9499;52.472;13.448;2023-02-01T01:45:39;4.50;71.20
18741;DHT22;9499;52.472;13.448;2023-02-01T01:48:10;4.50;73.30
18741;DHT22;9499;52.472;13.448;2023-02-01T01:50:42;4.50;65.80
18741;DHT22;9499;52.472;13.448;2023-02-01T01:53:14;4.50;60.40
18741;DHT22;9499;52.472;13.448;2023-02-01T01:55:43;4.50;60.90
18741;DHT22;9499;52.472;13.448;2023-02-01T01:58:12;4.50;60.00
18741;DHT22;9499;52.472;13.448;2023-02-01T02:00:41;4.60;48.90
18741;DHT22;9499;52.472;13.448;2023-02-01T02:03:13;4.60;49.30
18741;DHT22;9499;52.472;13.448;2023-02-01T02:05:41;4.60;40.90
18741;DHT22;9499;52.472;13.448;2023-02-01T02:08:08;4.60;41.70
18741;DHT22;9499;52.472;13.448;2023-02-01T02:10:36;4.60;46.60
18741;DHT22;9499;52.472;13.448;2023-02-01T02:13:21;4.60;40.30
18741;DHT22;9499;52.472;13.448;2023-02-01T02:15:54;4.70;39.70
18741;DHT22;9499;52.472;13.448;2023-02-01T02:18:27;4.70;30.00
18741;DHT22;9499;52.472;13.448;2023-02-01T02:21:12;4.70;27.80
18741;DHT22;9499;52.472;13.448;2023-02-01T02:24:12;4.70;34.00
18741;DHT22;9499;52.472;13.448;2023-02-01T02:26:56;4.70;31.60
18741;DHT22;9499;52.472;13.448;2023-02-01T02:30:11;4.70;24.50
18741;DHT22;9499;52.472;13.448;2023-02-01T02:33:02;4.70;25.00
18741;DHT22;9499;52.472;13.448;2023-02-01T02:35:37;4.70;19.10
18741;DHT22;9499;52.472;13.448;2023-02-01T02:38:15;4.70;20.50
18741;DHT22;9499;52.472;13.448;2023-02-01T02:40:48;4.70;24.10
18741;DHT22;9499;52.472;13.448;2023-02-01T02:43:20;4.70;26.60
18741;DHT22;9499;52.472;13.448;2023-02-01T02:46:11;4.70;27.90
18741;DHT22;9499;52.472;13.448;2023-02-01T02:49:02;4.70;27.20
18741;DHT22;9499;52.472;13.448;2023-02-01T02:51:35;4.70;28.00
18741;DHT22;9499;52.472;13.448;2023-02-01T02:54:24;4.70;31.20
18741;DHT22;9499;52.472;13.448;2023-02-01T02:57:13;4.70;33.30
18741;DHT22;9499;52.472;13.448;2023-02-01T03:00:00;4.70;30.30
18741;DHT22;9499;52.472;13.448;2023-02-01T03:02:46;4.70;36.90
18741;DHT22;9499;52.472;13.448;2023-02-01T03:05:34;4.60;48.20
18741;DHT22;9499;52.472;13.448;2023-02-01T03:08:04;4.70;35.30
18741;DHT22;9499;52.472;13.448;2023-02-01T03:10:40;4.60;44.60
18741;DHT22;9499;52.472;13.448;2023-02-01T03:13:11;4.70;40.90
18741;DHT22;9499;52.472;13.448;2023-02-01T03:15:42;4.70;44.80
18741;DHT22;9499;52.472;13.448;2023-02-01T03:18:14;4.70;45.90
18741;DHT22;9499;52.472;13.448;2023-02-01T03:20:46;4.70;30.10
18741;DHT22;9499;52.472;13.448;2023-02-01T03:23:19;4.70;34.10
18741;DHT22;9499;52.472;13.448;2023-02-01T03:25:48;4.80;28.00
18741;DHT22;9499;52.472;13.448;2023-02-01T03:28:17;4.80;27.70
18741;DHT22;9499;52.472;13.448;2023-02-01T03:30:48;4.80;32.30
18741;DHT22;9499;52.472;13.448;2023-02-01T03:33:18;4.70;34.20
18741;DHT22;9499;52.472;13.448;2023-02-01T03:35:54;4.80;34.30
18741;DHT22;9499;52.472;13.448;2023-02-01T03:38:27;4.80;33.70
18741;DHT22;9499;52.472;13.448;2023-02-01T03:41:00;4.80;34.00
18741;DHT22;9499;52.472;13.448;2023-02-01T03:43:30;4.80;28.80
18741;DHT22;9499;52.472;13.448;2023-02-01T03:46:03;4.80;25.60
18741;DHT22;9499;52.472;13.448;2023-02-01T03:48:30;4.80;25.90
18741;DHT22;9499;52.472;13.448;2023-02-01T03:51:00;4.80;26.80
18741;DHT22;9499;52.472;13.448;2023-02-01T03:53:29;4.80;25.50
18741;DHT22;9499;52.472;13.448;2023-02-01T03:55:56;4.80;19.90
18741;DHT22;9499;52.472;13.448;2023-02-01T03:58:23;4.80;20.90
18741;DHT22;9499;52.472;13.448;2023-02-01T04:00:52;4.80;15.40
18741;DHT22;9499;52.472;13.448;2023-02-01T04:03:19;4.90;18.50
18741;DHT22;9499;52.472;13.448;2023-02-01T04:05:47;4.90;14.00
18741;DHT22;9499;52.472;13.448;2023-02-01T04:08:13;4.90;18.90
18741;DHT22;9499;52.472;13.448;2023-02-01T04:10:41;4.90;17.80
18741;DHT22;9499;52.472;13.448;2023-02-01T04:13:07;4.90;21.90
18741;DHT22;9499;52.472;13.448;2023-02-01T04:15:34;4.90;17.10
18741;DHT22;9499;52.472;13.448;2023-02-01T04:18:01;4.90;20.40
18741;DHT22;9499;52.472;13.448;2023-02-01T04:20:27;4.90;19.90
18741;DHT22;9499;52.472;13.448;2023-02-01T04:22:54;4.90;24.30
18741;DHT22;9499;52.472;13.448;2023-02-01T04:25:20;5.00;12.10
18741;DHT22;9499;52.472;13.448;2023-02-01T04:27:48;5.00;14.00
18741;DHT22;9499;52.472;13.448;2023-02-01T04:30:15;5.00;21.90
18741;DHT22;9499;52.472;13.448;2023-02-01T04:32:42;5.00;9.50
18741;DHT22;9499;52.472;13.448;2023-02-01T04:35:09;5.00;13.00
18741;DHT22;9499;52.472;13.448;2023-02-01T04:37:37;5.10;10.20
18741;DHT22;9499;52.472;13.448;2023-02-01T04:40:04;5.10;3.20
18741;DHT22;9499;52.472;13.448;2023-02-01T04:42:31;5.10;3.60
18741;DHT22;9499;52.472;13.448;2023-02-01T04:44:58;5.10;1.00
18741;DHT22;9499;52.472;13.448;2023-02-01T04:47:25;5.20;1.20
18741;DHT22;9499;52.472;13.448;2023-02-01T04:49:51;5.20;1.00
18741;DHT22;9499;52.472;13.448;2023-02-01T04:52:18;5.20;1.00
18741;DHT22;9499;52.472;13.448;2023-02-01T04:54:44;5.20;1.00
18741;DHT22;9499;52.472;13.448;2023-02-01T04:57:11;5.20;1.00
18741;DHT22;9499;52.472;13.448;2023-02-01T04:59:38;5.20;1.00
18741;DHT22;9499;52.472;13.448;2023-02-01T05:02:06;5.30;1.00
18741;DHT22;9499;52.472;13.448;2023-02-01T05:04:33;5.30;1.00
18741;DHT22;9499;52.472;13.448;2023-02-01T05:07:00;5.30;1.00
18741;DHT22;9499;52.472;13.448;2023-02-01T05:09:26;5.30;1.00
18741;DHT22;9499;52.472;13.448;2023-02-01T05:11:52;5.30;1.00
18741;DHT22;9499;52.472;13.448;2023-02-01T05:14:37;5.30;1.00
18741;DHT22;9499;52.472;13.448;2023-02-01T05:17:03;5.40;1.00
18741;DHT22;9499;52.472;13.448;2023-02-01T05:19:31;5.40;1.00
18741;DHT22;9499;52.472;13.448;2023-02-01T05:21:57;5.40;1.00
18741;DHT22;9499;52.472;13.448;2023-02-01T05:24:24;5.40;1.00
18741;DHT22;9499;52.472;13.448;2023-02-01T05:26:52;5.40;1.00
18741;DHT22;9499;52.472;13.448;2023-02-01T05:29:19;5.40;1.00
18741;DHT22;9499;52.472;13.448;2023-02-01T05:31:46;5.40;1.00
18741;DHT22;9499;52.472;13.448;2023-02-01T05:34:13;5.40;1.00
18741;DHT22;9499;52.472;13.448;2023-02-01T05:36:41;5.50;1.00
18741;DHT22;9499;52.472;13.448;2023-02-01T05:39:08;5.40;1.00
18741;DHT22;9499;52.472;13.448;2023-02-01T05:41:35;5.40;1.00
18741;DHT22;9499;52.472;13.448;2023-02-01T05:44:02;5.50;1.00
18741;DHT22;9499;52.472;13.448;2023-02-01T05:46:29;5.50;1.00
18741;DHT22;9499;52.472;13.448;2023-02-01T05:48:55;5.50;1.00
18741;DHT22;9499;52.472;13.448;2023-02-01T05:51:22;5.50;1.00
18741;DHT22;9499;52.472;13.448;2023-02-01T05:53:50;5.50;1.00
18741;DHT22;9499;52.472;13.448;2023-02-01T05:56:16;5.50;1.00
18741;DHT22;9499;52.472;13.448;2023-02-01T05:58:43;5.50;1.00
18741;DHT22;9499;52.472;13.448;2023-02-01T06:01:09;5.50;1.00
18741;DHT22;9499;52.472;13.448;2023-02-01T06:03:36;5.50;1.00
18741;DHT22;9499;52.472;13.448;2023-02-01T06:06:02;5.50;1.00
18741;DHT22;9499;52.472;13.448;2023-02-01T06:08:29;5.50;1.00
18741;DHT22;9499;52.472;13.448;2023-02-01T06:11:00;5.50;1.00
18741;DHT22;9499;52.472;13.448;2023-02-01T06:13:28;5.50;1.00
18741;DHT22;9499;52.472;13.448;2023-02-01T06:15:55;5.50;1.00
18741;DHT22;9499;52.472;13.448;2023-02-01T06:18:22;5.40;1.00
18741;DHT22;9499;52.472;13.448;2023-02-01T06:20:53;5.40;1.00
18741;DHT22;9499;52.472;13.448;2023-02-01T06:23:19;5.40;12.30
18741;DHT22;9499;52.472;13.448;2023-02-01T06:25:50;5.30;25.50
18741;DHT22;9499;52.472;13.448;2023-02-01T06:28:18;5.30;33.30
18741;DHT22;9499;52.472;13.448;2023-02-01T06:30:44;5.20;48.20
18741;DHT22;9499;52.472;13.448;2023-02-01T06:33:12;5.20;47.90
18741;DHT22;9499;52.472;13.448;2023-02-01T06:35:40;5.20;63.00
18741;DHT22;9499;52.472;13.448;2023-02-01T06:38:06;5.10;60.00
18741;DHT22;9499;52.472;13.448;2023-02-01T06:40:33;5.10;72.00
18741;DHT22;9499;52.472;13.448;2023-02-01T06:43:00;5.10;65.20
18741;DHT22;9499;52.472;13.448;2023-02-01T06:45:28;5.10;63.50
18741;DHT22;9499;52.472;13.448;2023-02-01T06:47:55;5.10;65.10
18741;DHT22;9499;52.472;13.448;2023-02-01T06:50:21;5.10;66.00
18741;DHT22;9499;52.472;13.448;2023-02-01T06:52:48;5.10;70.20
18741;DHT22;9499;52.472;13.448;2023-02-01T06:55:15;5.10;74.90
18741;DHT22;9499;52.472;13.448;2023-02-01T06:57:41;5.10;65.40
18741;DHT22;9499;52.472;13.448;2023-02-01T07:00:09;5.10;62.80
18741;DHT22;9499;52.472;13.448;2023-02-01T07:02:37;5.10;42.10
18741;DHT22;9499;52.472;13.448;2023-02-01T07:05:05;5.10;52.10
18741;DHT22;9499;52.472;13.448;2023-02-01T07:07:32;5.10;50.40
18741;DHT22;9499;52.472;13.448;2023-02-01T07:09:58;5.10;38.20
18741;DHT22;9499;52.472;13.448;2023-02-01T07:12:25;5.10;28.90
18741;DHT22;9499;52.472;13.448;2023-02-01T07:14:51;5.10;21.00
18741;DHT22;9499;52.472;13.448;2023-02-01T07:17:18;5.10;16.90
18741;DHT22;9499;52.472;13.448;2023-02-01T07:19:46;5.20;14.90
18741;DHT22;9499;52.472;13.448;2023-02-01T07:22:12;5.20;16.40
18741;DHT22;9499;52.472;13.448;2023-02-01T07:24:39;5.20;9.00
18741;DHT22;9499;52.472;13.448;2023-02-01T07:27:05;5.20;17.70
18741;DHT22;9499;52.472;13.448;2023-02-01T07:29:32;5.20;17.80
18741;DHT22;9499;52.472;13.448;2023-02-01T07:31:58;5.20;22.60
18741;DHT22;9499;52.472;13.448;2023-02-01T07:34:25;5.10;48.90
18741;DHT22;9499;52.472;13.448;2023-02-01T07:36:54;5.10;55.60
18741;DHT22;9499;52.472;13.448;2023-02-01T07:39:20;5.10;69.80
18741;DHT22;9499;52.472;13.448;2023-02-01T07:41:47;5.10;62.80
18741;DHT22;9499;52.472;13.448;2023-02-01T07:44:14;5.10;62.90
18741;DHT22;9499;52.472;13.448;2023-02-01T07:46:40;5.10;62.70
18741;DHT22;9499;52.472;13.448;2023-02-01T07:49:08;5.10;62.20
18741;DHT22;9499;52.472;13.448;2023-02-01T07:51:35;5.10;74.00
18741;DHT22;9499;52.472;13.448;2023-02-01T07:54:03;5.00;99.90
18741;DHT22;9499;52.472;13.448;2023-02-01T07:56:30;5.00;99.90
18741;DHT22;9499;52.472;13.448;2023-02-01T07:58:56;4.80;99.90
18741;DHT22;9499;52.472;13.448;2023-02-01T08:01:26;4.70;99.90
18741;DHT22;9499;52.472;13.448;2023-02-01T08:03:54;4.60;99.90
18741;DHT22;9499;52.472;13.448;2023-02-01T08:06:23;4.50;99.90
18741;DHT22;9499;52.472;13.448;2023-02-01T08:08:50;4.50;99.90
18741;DHT22;9499;52.472;13.448;2023-02-01T08:11:19;4.50;99.90
18741;DHT22;9499;52.472;13.448;2023-02-01T08:13:46;4.40;99.90
18741;DHT22;9499;52.472;13.448;2023-02-01T08:16:14;4.30;99.90
18741;DHT22;9499;52.472;13.448;2023-02-01T08:18:41;4.20;99.90
18741;DHT22;9499;52.472;13.448;2023-02-01T08:21:10;4.10;99.90
18741;DHT22;9499;52.472;13.448;2023-02-01T08:23:37;4.10;99.90
18741;DHT22;9499;52.472;13.448;2023-02-01T08:26:06;4.10;99.90
18741;DHT22;9499;52.472;13.448;2023-02-01T08:28:34;4.10;99.90
18741;DHT22;9499;52.472;13.448;2023-02-01T08:31:04;4.10;99.90
18741;DHT22;9499;52.472;13.448;2023-02-01T08:33:31;4.00;99.90
18741;DHT22;9499;52.472;13.448;2023-02-01T08:36:00;4.00;99.90
18741;DHT22;9499;52.472;13.448;2023-02-01T08:38:27;4.00;99.90
18741;DHT22;9499;52.472;13.448;2023-02-01T08:40:54;4.00;99.90
18741;DHT22;9499;52.472;13.448;2023-02-01T08:43:20;4.00;99.90
18741;DHT22;9499;52.472;13.448;2023-02-01T08:45:49;4.00;99.90
18741;DHT22;9499;52.472;13.448;2023-02-01T08:48:16;4.00;99.90
18741;DHT22;9499;52.472;13.448;2023-02-01T08:50:42;4.00;99.90
18741;DHT22;9499;52.472;13.448;2023-02-01T08:53:12;4.00;99.90
18741;DHT22;9499;52.472;13.448;2023-02-01T08:55:39;4.10;99.90
18741;DHT22;9499;52.472;13.448;2023-02-01T08:58:06;4.10;99.90
18741;DHT22;9499;52.472;13.448;2023-02-01T09:00:32;4.10;99.90
18741;DHT22;9499;52.472;13.448;2023-02-01T09:03:00;4.10;99.90
18741;DHT22;9499;52.472;13.448;2023-02-01T09:05:27;4.10;99.90
18741;DHT22;9499;52.472;13.448;2023-02-01T09:07:54;4.10;99.90
18741;DHT22;9499;52.472;13.448;2023-02-01T09:10:20;4.10;99.90
18741;DHT22;9499;52.472;13.448;2023-02-01T09:12:47;4.10;99.90
18741;DHT22;9499;52.472;13.448;2023-02-01T09:15:14;4.10;99.90
18741;DHT22;9499;52.472;13.448;2023-02-01T09:17:40;4.10;99.90
18741;DHT22;9499;52.472;13.448;2023-02-01T09:20:11;4.10;99.90
18741;DHT22;9499;52.472;13.448;2023-02-01T09:22:38;4.10;99.90
18741;DHT22;9499;52.472;13.448;2023-02-01T09:25:06;4.20;99.90
18741;DHT22;9499;52.472;13.448;2023-02-01T09:27:33;4.20;99.90
18741;DHT22;9499;52.472;13.448;2023-02-01T09:29:59;4.30;99.90
18741;DHT22;9499;52.472;13.448;2023-02-01T09:32:26;4.30;99.90
18741;DHT22;9499;52.472;13.448;2023-02-01T09:34:52;4.30;99.90
18741;DHT22;9499;52.472;13.448;2023-02-01T09:37:20;4.30;99.90
18741;DHT22;9499;52.472;13.448;2023-02-01T09:39:47;4.30;99.90
18741;DHT22;9499;52.472;13.448;2023-02-01T09:42:25;4.30;99.90
18741;DHT22;9499;52.472;13.448;2023-02-01T09:45:06;4.40;99.90
18741;DHT22;9499;52.472;13.448;2023-02-01T09:47:38;4.40;99.90
18741;DHT22;9499;52.472;13.448;2023-02-01T09:50:13;4.40;99.90
18741;DHT22;9499;52.472;13.448;2023-02-01T09:52:47;4.40;99.90
18741;DHT22;9499;52.472;13.448;2023-02-01T09:55:20;4.40;99.90
18741;DHT22;9499;52.472;13.448;2023-02-01T09:57:52;4.40;99.90
18741;DHT22;9499;52.472;13.448;2023-02-01T10:00:25;4.40;99.90
18741;DHT22;9499;52.472;13.448;2023-02-01T10:02:54;4.40;99.90
18741;DHT22;9499;52.472;13.448;2023-02-01T10:05:31;4.40;99.90
18741;DHT22;9499;52.472;13.448;2023-02-01T10:08:14;4.40;99.90
18741;DHT22;9499;52.472;13.448;2023-02-01T10:10:46;4.40;99.90
18741;DHT22;9499;52.472;13.448;2023-02-01T10:13:39;4.40;99.90
18741;DHT22;9499;52.472;13.448;2023-02-01T10:16:17;4.40;99.90
18741;DHT22;9499;52.472;13.448;2023-02-01T10:19:01;4.40;99.90
18741;DHT22;9499;52.472;13.448;2023-02-01T10:21:42;4.40;99.90
18741;DHT22;9499;52.472;13.448;2023-02-01T10:24:25;4.40;99.90
18741;DHT22;9499;52.472;13.448;2023-02-01T10:26:59;4.40;99.90
18741;DHT22;9499;52.472;13.448;2023-02-01T10:29:31;4.40;99.90
18741;DHT22;9499;52.472;13.448;2023-02-01T10:32:01;4.40;99.90
18741;DHT22;9499;52.472;13.448;2023-02-01T10:34:31;4.40;99.90
18741;DHT22;9499;52.472;13.448;2023-02-01T10:37:01;4.40;99.90
18741;DHT22;9499;52.472;13.448;2023-02-01T10:39:29;4.40;99.90
18741;DHT22;9499;52.472;13.448;2023-02-01T10:41:56;4.50;99.90
18741;DHT22;9499;52.472;13.448;2023-02-01T10:44:26;4.50;99.90
18741;DHT22;9499;52.472;13.448;2023-02-01T10:46:52;4.60;99.90
18741;DHT22;9499;52.472;13.448;2023-02-01T10:49:24;4.60;99.90
18741;DHT22;9499;52.472;13.448;2023-02-01T10:51:55;4.60;99.90
18741;DHT22;9499;52.472;13.448;2023-02-01T10:54:34;4.60;99.90
18741;DHT22;9499;52.472;13.448;2023-02-01T10:57:00;4.50;99.90
18741;DHT22;9499;52.472;13.448;2023-02-01T10:59:28;4.40;99.90
18741;DHT22;9499;52.472;13.448;2023-02-01T11:01:59;4.40;99.90
18741;DHT22;9499;52.472;13.448;2023-02-01T11:04:26;4.30;99.90
18741;DHT22;9499;52.472;13.448;2023-02-01T11:07:06;4.30;99.90
18741;DHT22;9499;52.472;13.448;2023-02-01T11:09:39;4.30;99.90
18741;DHT22;9499;52.472;13.448;2023-02-01T11:12:22;4.30;99.90
18741;DHT22;9499;52.472;13.448;2023-02-01T11:14:50;4.40;99.90
18741;DHT22;9499;52.472;13.448;2023-02-01T11:17:23;4.40;99.90
18741;DHT22;9499;52.472;13.448;2023-02-01T11:19:57;4.50;99.90
18741;DHT22;9499;52.472;13.448;2023-02-01T11:22:25;4.50;99.90
18741;DHT22;9499;52.472;13.448;2023-02-01T11:24:53;4.60;99.90
18741;DHT22;9499;52.472;13.448;2023-02-01T11:27:21;4.60;99.90
18741;DHT22;9499;52.472;13.448;2023-02-01T11:29:51;4.70;99.90
18741;DHT22;9499;52.472;13.448;2023-02-01T11:32:21;4.70;99.90
18741;DHT22;9499;52.472;13.448;2023-02-01T11:34:52;4.80;99.90
18741;DHT22;9499;52.472;13.448;2023-02-01T11:37:21;5.00;99.90
18741;DHT22;9499;52.472;13.448;2023-02-01T11:39:58;5.20;99.90
18741;DHT22;9499;52.472;13.448;2023-02-01T11:42:26;5.60;99.90
18741;DHT22;9499;52.472;13.448;2023-02-01T11:45:18;5.90;99.90
18741;DHT22;9499;52.472;13.448;2023-02-01T11:47:45;6.00;99.90
18741;DHT22;9499;52.472;13.448;2023-02-01T11:50:16;6.10;99.90
18741;DHT22;9499;52.472;13.448;2023-02-01T11:53:03;6.00;99.90
18741;DHT22;9499;52.472;13.448;2023-02-01T11:55:47;5.90;99.90
18741;DHT22;9499;52.472;13.448;2023-02-01T11:58:30;5.80;99.90
18741;DHT22;9499;52.472;13.448;2023-02-01T12:01:29;5.90;99.90
18741;DHT22;9499;52.472;13.448;2023-02-01T12:04:15;6.10;99.90
18741;DHT22;9499;52.472;13.448;2023-02-01T12:06:51;6.10;99.90
18741;DHT22;9499;52.472;13.448;2023-02-01T12:09:45;6.10;99.90
18741;DHT22;9499;52.472;13.448;2023-02-01T12:12:19;6.20;99.90
18741;DHT22;9499;52.472;13.448;2023-02-01T12:15:05;6.20;99.90
18741;DHT22;9499;52.472;13.448;2023-02-01T12:17:54;6.30;99.90
18741;DHT22;9499;52.472;13.448;2023-02-01T12:20:41;6.30;99.90
18741;DHT22;9499;52.472;13.448;2023-02-01T12:23:25;6.30;99.90
18741;DHT22;9499;52.472;13.448;2023-02-01T12:26:08;6.30;99.90
18741;DHT22;9499;52.472;13.448;2023-02-01T12:29:03;6.20;99.90
18741;DHT22;9499;52.472;13.448;2023-02-01T12:31:46;6.20;99.90
18741;DHT22;9499;52.472;13.448;2023-02-01T12:34:28;6.10;99.90
18741;DHT22;9499;52.472;13.448;2023-02-01T12:37:05;6.10;99.90
18741;DHT22;9499;52.472;13.448;2023-02-01T12:39:39;6.10;99.90
18741;DHT22;9499;52.472;13.448;2023-02-01T12:42:12;6.10;99.90
18741;DHT22;9499;52.472;13.448;2023-02-01T12:44:46;6.10;99.90
18741;DHT22;9499;52.472;13.448;2023-02-01T12:47:20;6.10;99.90
18741;DHT22;9499;52.472;13.448;2023-02-01T12:49:53;6.10;99.90
18741;DHT22;9499;52.472;13.448;2023-02-01T12:52:27;6.10;99.90
18741;DHT22;9499;52.472;13.448;2023-02-01T12:55:03;6.20;99.90
18741;DHT22;9499;52.472;13.448;2023-02-01T12:57:33;6.20;99.90
18741;DHT22;9499;52.472;13.448;2023-02-01T13:00:07;6.30;99.90
18741;DHT22;9499;52.472;13.448;2023-02-01T13:02:42;6.20;99.90
18741;DHT22;9499;52.472;13.448;2023-02-01T13:05:17;6.20;99.90
18741;DHT22;9499;52.472;13.448;2023-02-01T13:07:48;6.20;99.90
18741;DHT22;9499;52.472;13.448;2023-02-01T13:10:18;6.30;99.90
18741;DHT22;9499;52.472;13.448;2023-02-01T13:12:51;6.30;99.90
18741;DHT22;9499;52.472;13.448;2023-02-01T13:15:24;6.30;51.60
18741;DHT22;9499;52.472;13.448;2023-02-01T13:17:53;6.30;12.30
18741;DHT22;9499;52.472;13.448;2023-02-01T13:20:25;6.40;24.00
18741;DHT22;9499;52.472;13.448;2023-02-01T13:22:58;6.30;30.00
18741;DHT22;9499;52.472;13.448;2023-02-01T13:25:30;6.30;39.90
18741;DHT22;9499;52.472;13.448;2023-02-01T13:28:01;6.30;36.10
18741;DHT22;9499;52.472;13.448;2023-02-01T13:30:38;6.30;28.70
18741;DHT22;9499;52.472;13.448;2023-02-01T13:33:22;6.30;38.80
18741;DHT22;9499;52.472;13.448;2023-02-01T13:36:13;6.30;26.90
18741;DHT22;9499;52.472;13.448;2023-02-01T13:38:57;6.30;28.60
18741;DHT22;9499;52.472;13.448;2023-02-01T13:41:30;6.30;40.50
18741;DHT22;9499;52.472;13.448;2023-02-01T13:44:01;6.30;26.60
18741;DHT22;9499;52.472;13.448;2023-02-01T13:46:30;6.30;27.20
18741;DHT22;9499;52.472;13.448;2023-02-01T13:49:04;6.30;31.20
18741;DHT22;9499;52.472;13.448;2023-02-01T13:51:40;6.30;24.80
18741;DHT22;9499;52.472;13.448;2023-02-01T13:54:18;6.30;27.00
18741;DHT22;9499;52.472;13.448;2023-02-01T13:56:49;6.40;26.40
18741;DHT22;9499;52.472;13.448;2023-02-01T13:59:36;6.40;30.00
18741;DHT22;9499;52.472;13.448;2023-02-01T14:02:42;6.40;28.60
18741;DHT22;9499;52.472;13.448;2023-02-01T14:05:13;6.40;27.40
18741;DHT22;9499;52.472;13.448;2023-02-01T14:08:10;6.40;32.60
18741;DHT22;9499;52.472;13.448;2023-02-01T14:10:47;6.40;25.80
18741;DHT22;9499;52.472;13.448;2023-02-01T14:13:24;6.40;27.30
18741;DHT22;9499;52.472;13.448;2023-02-01T14:16:12;6.40;28.90
18741;DHT22;9499;52.472;13.448;2023-02-01T14:18:58;6.40;54.90
18741;DHT22;9499;52.472;13.448;2023-02-01T14:21:28;6.30;80.70
18741;DHT22;9499;52.472;13.448;2023-02-01T14:23:58;6.30;94.30
18741;DHT22;9499;52.472;13.448;2023-02-01T14:26:27;6.20;98.70
18741;DHT22;9499;52.472;13.448;2023-02-01T14:29:23;6.10;99.90
18741;DHT22;9499;52.472;13.448;2023-02-01T14:32:00;6.10;99.90
18741;DHT22;9499;52.472;13.448;2023-02-01T14:34:38;6.10;97.90
18741;DHT22;9499;52.472;13.448;2023-02-01T14:37:10;6.10;99.90
18741;DHT22;9499;52.472;13.448;2023-02-01T14:39:50;6.10;95.00
18741;DHT22;9499;52.472;13.448;2023-02-01T14:42:22;6.20;90.10
18741;DHT22;9499;52.472;13.448;2023-02-01T14:44:50;6.20;85.30
18741;DHT22;9499;52.472;13.448;2023-02-01T14:47:28;6.10;71.70
18741;DHT22;9499;52.472;13.448;2023-02-01T14:52:51;6.20;70.80
18741;DHT22;9499;52.472;13.448;2023-02-01T14:55:27;6.20;55.00
18741;DHT22;9499;52.472;13.448;2023-02-01T14:57:58;6.20;27.90
18741;DHT22;9499;52.472;13.448;2023-02-01T15:00:27;6.20;27.10
18741;DHT22;9499;52.472;13.448;2023-02-01T15:05:39;6.30;12.60
18741;DHT22;9499;52.472;13.448;2023-02-01T15:08:14;6.30;14.30
18741;DHT22;9499;52.472;13.448;2023-02-01T15:10:44;6.40;1.00
18741;DHT22;9499;52.472;13.448;2023-02-01T15:13:19;6.30;1.00
18741;DHT22;9499;52.472;13.448;2023-02-01T15:15:59;6.20;1.00
18741;DHT22;9499;52.472;13.448;2023-02-01T15:18:26;6.00;30.70
18741;DHT22;9499;52.472;13.448;2023-02-01T15:20:57;5.80;60.60
18741;DHT22;9499;52.472;13.448;2023-02-01T15:23:24;5.50;93.90
18741;DHT22;9499;52.472;13.448;2023-02-01T15:25:51;5.40;99.90
18741;DHT22;9499;52.472;13.448;2023-02-01T15:28:17;5.30;99.90
18741;DHT22;9499;52.472;13.448;2023-02-01T15:30:53;5.20;99.90
18741;DHT22;9499;52.472;13.448;2023-02-01T15:33:19;5.10;99.90
18741;DHT22;9499;52.472;13.448;2023-02-01T15:35:48;5.00;99.90
18741;DHT22;9499;52.472;13.448;2023-02-01T15:38:30;4.80;99.90
18741;DHT22;9499;52.472;13.448;2023-02-01T15:40:59;4.70;99.90
18741;DHT22;9499;52.472;13.448;2023-02-01T15:43:27;4.60;99.90
18741;DHT22;9499;52.472;13.448;2023-02-01T15:45:57;4.50;99.90
18741;DHT22;9499;52.472;13.448;2023-02-01T15:48:26;4.40;99.90
18741;DHT22;9499;52.472;13.448;2023-02-01T15:50:55;4.30;99.90
18741;DHT22;9499;52.472;13.448;2023-02-01T15:53:38;4.20;99.90
18741;DHT22;9499;52.472;13.448;2023-02-01T15:56:11;4.00;99.90
18741;DHT22;9499;52.472;13.448;2023-02-01T15:58:42;3.90;99.90
18741;DHT22;9499;52.472;13.448;2023-02-01T16:01:11;3.80;99.90
18741;DHT22;9499;52.472;13.448;2023-02-01T16:03:41;3.80;99.90
18741;DHT22;9499;52.472;13.448;2023-02-01T16:06:09;3.70;99.90
18741;DHT22;9499;52.472;13.448;2023-02-01T16:08:48;3.60;99.90
18741;DHT22;9499;52.472;13.448;2023-02-01T16:11:23;3.60;99.90
18741;DHT22;9499;52.472;13.448;2023-02-01T16:16:33;3.40;99.90
18741;DHT22;9499;52.472;13.448;2023-02-01T16:18:59;3.40;99.90
18741;DHT22;9499;52.472;13.448;2023-02-01T16:21:26;3.30;99.90
18741;DHT22;9499;52.472;13.448;2023-02-01T16:23:54;3.10;99.90